Latest Weather Observations for Coolangatta

IDQ60801

Issued at 6:32 am EST Saturday 20 December 2014 (issued every 30 minutes, with the page automatically refreshed every 10 minutes)

About weather observations | Map of weather stations | Latest weather observations for QLD | Other Formats
Station Details ID: 040717 Name: COOLANGATTA Lat: -28.17 Lon: 153.51 Height: 4.0 m
Data from the previous 72 hours. | See also: Recent months at Coolangatta
Date/Time
EST
Temp
°C
App
Temp
°C
Dew
Point
Rel
Hum
%
Delta-T
°C
Wind Press
QNH
hPa
Press
MSL
hPa
Rain
since 9 am
mm
Dir
 
Spd
km/h
Gust
km/h
Spd
kts
Gust
kts
20/06:30am 23.9 24.6 17.9 69 3.7 S 11 17 6 9 1015.8 1015.7 0.0
20/06:00am 23.1 23.7 17.6 71 3.4 S 11 17 6 9 1015.3 1015.2 0.0
20/05:30am 22.1 22.6 17.5 75 2.8 S 11 15 6 8 1015.1 1015.0 0.0
20/05:00am 21.5 22.3 17.3 77 2.6 SSW 9 13 5 7 1014.9 1014.8 0.0
20/04:30am 21.5 21.9 17.3 77 2.6 S 11 17 6 9 1014.5 1014.4 0.0
20/04:00am 21.6 22.4 17.4 77 2.6 S 9 15 5 8 1014.2 1014.1 0.0
20/03:30am 21.8 22.2 17.2 75 2.8 S 11 17 6 9 1014.1 1014.0 0.0
20/03:00am 22.1 22.2 17.5 75 2.8 S 13 17 7 9 1013.9 1013.8 0.0
20/02:30am 22.0 22.1 17.4 75 2.8 SSW 13 19 7 10 1013.8 1013.7 0.0
20/02:00am 22.2 21.9 17.3 74 3.0 S 15 20 8 11 1013.8 1013.7 0.0
20/01:30am 22.4 21.7 17.3 73 3.1 SSW 17 22 9 12 1013.9 1013.8 0.0
20/01:00am 22.4 22.2 17.5 74 3.0 S 15 19 8 10 1014.0 1013.9 0.0
20/12:30am 22.6 22.1 17.7 74 3.0 S 17 24 9 13 1014.2 1014.1 0.0
20/12:00am 22.8 22.3 17.7 73 3.2 S 17 26 9 14 1014.6 1014.5 0.0
 
Date/Time
EST
Temp
°C
App
Temp
°C
Dew
Point
Rel
Hum
%
Delta-T
°C
Wind Press
QNH
hPa
Press
MSL
hPa
Rain
since 9 am
mm
Dir
 
Spd
km/h
Gust
km/h
Spd
kts
Gust
kts
19/11:30pm 22.8 22.3 17.9 74 3.1 SSW 17 26 9 14 1014.8 1014.7 0.0
19/11:00pm 22.9 22.1 18.0 74 3.1 S 19 26 10 14 1014.8 1014.7 0.0
19/10:30pm 23.1 22.5 18.4 75 3.0 S 19 24 10 13 1014.8 1014.7 0.0
19/10:00pm 23.3 22.9 18.8 76 2.8 S 19 26 10 14 1014.8 1014.7 0.0
19/09:30pm 23.5 23.0 19.0 76 2.9 S 20 30 11 16 1014.5 1014.4 0.0
19/08:30pm 24.2 24.0 19.7 76 2.9 S 20 26 11 14 1013.8 1013.7 0.0
19/08:00pm 24.4 24.3 19.5 74 3.1 S 19 26 10 14 1013.4 1013.3 0.0
19/07:30pm 24.6 24.6 19.7 74 3.2 SSE 19 26 10 14 1013.0 1012.9 0.0
19/07:00pm 25.3 25.2 19.9 72 3.5 SSE 20 32 11 17 1012.6 1012.5 0.0
19/06:30pm 26.2 26.3 18.3 61 5.0 SE 15 20 8 11 1012.0 1011.9 0.0
19/06:00pm 27.3 26.2 16.3 51 6.8 SE 17 28 9 15 1011.4 1011.3 0.0
19/05:30pm 27.6 28.1 17.5 54 6.4 ESE 11 17 6 9 1010.7 1010.6 0.0
19/05:00pm 26.8 28.2 21.1 71 3.8 ENE 15 20 8 11 1010.1 1010.0 0.0
19/04:30pm 27.1 28.0 21.6 72 3.7 ENE 19 24 10 13 1009.4 1009.3 0.0
19/04:00pm 27.5 29.1 22.2 73 3.6 NE 17 24 9 13 1008.6 1008.5 0.0
19/03:30pm 28.1 29.4 22.6 72 3.7 NNE 20 26 11 14 1008.4 1008.3 0.0
19/03:00pm 28.0 29.2 22.5 72 3.7 NNE 20 28 11 15 1008.4 1008.3 0.0
19/02:30pm 28.5 29.3 22.5 70 4.1 NNE 22 30 12 16 1008.6 1008.5 0.0
19/02:00pm 28.9 29.3 22.4 68 4.4 NNE 24 30 13 16 1008.9 1008.8 0.0
19/01:30pm 28.7 28.8 21.2 64 5.0 NNE 22 30 12 16 1009.1 1009.0 0.0
19/01:00pm 29.4 29.1 20.3 58 6.0 NNE 22 26 12 14 1009.4 1009.3 0.0
19/12:30pm 29.1 28.7 19.4 55 6.3 NNE 20 24 11 13 1009.8 1009.7 0.0
19/12:00pm 28.5 27.8 18.3 54 6.5 NNE 19 22 10 12 1010.1 1010.0 0.0
19/11:30am 28.2 27.5 18.6 56 6.2 NNE 20 24 11 13 1010.3 1010.2 0.0
19/11:00am 28.4 28.7 20.4 62 5.3 NNE 19 22 10 12 1010.5 1010.4 0.0
19/10:30am 27.3 26.6 19.4 62 5.1 NNE 22 26 12 14 1010.6 1010.5 0.0
19/10:00am 27.0 26.5 19.1 62 5.1 NNE 20 24 11 13 1010.6 1010.5 0.0
19/09:30am 26.5 26.2 19.6 66 4.5 N 20 24 11 13 1010.8 1010.7 0.0
19/09:00am 26.7 27.0 19.6 65 4.6 N 17 24 9 13 1011.0 1010.9 5.6
19/08:30am 25.7 27.2 19.8 70 3.8 NW 11 17 6 9 1011.2 1011.1 5.6
19/08:00am 23.9 25.7 19.6 77 2.8 WNW 9 17 5 9 1011.3 1011.2 5.6
19/07:30am 22.2 24.0 18.8 81 2.1 NW 7 11 4 6 1011.1 1011.0 5.6
19/07:00am 21.0 24.3 19.1 89 1.2 CALM 0 0 0 0 1011.2 1011.1 5.6
19/06:30am 20.7 24.0 19.0 90 1.1 CALM 0 0 0 0 1011.1 1011.0 5.6
19/06:00am 20.5 23.0 19.0 91 0.9 SW 4 7 2 4 1011.1 1011.0 5.6
19/05:30am 20.2 22.3 18.9 92 0.8 WNW 6 13 3 7 1010.8 1010.7 5.6
19/05:00am 20.2 20.8 18.7 91 0.9 WNW 13 19 7 10 1010.8 1010.7 5.6
19/04:30am 19.9 20.8 18.4 91 0.9 NW 11 13 6 7 1010.4 1010.3 5.6
19/04:00am 19.9 20.8 18.4 91 0.9 N 11 15 6 8 1010.4 1010.3 5.6
19/03:30am 19.9 21.6 18.6 92 0.8 WNW 7 9 4 5 1010.6 1010.5 5.4
19/03:00am 19.9 22.9 18.4 91 0.9 CALM 0 0 0 0 1010.8 1010.7 5.4
19/02:30am 19.9 21.3 17.9 88 1.2 WSW 7 11 4 6 1011.5 1011.4 5.0
19/02:00am 20.3 21.1 18.1 87 1.4 W 11 15 6 8 1011.7 1011.6 4.8
19/01:30am 21.3 21.7 19.0 87 1.5 WSW 15 24 8 13 1012.0 1011.9 3.6
19/01:00am 22.4 24.2 21.2 93 0.8 W 13 20 7 11 1012.1 1012.0 3.0
19/12:30am 22.7 25.2 21.7 94 0.7 WSW 11 13 6 7 1012.0 1011.9 1.8
19/12:00am 23.0 25.5 21.8 93 0.8 W 11 15 6 8 1011.8 1011.7 1.2
 
Date/Time
EST
Temp
°C
App
Temp
°C
Dew
Point
Rel
Hum
%
Delta-T
°C
Wind Press
QNH
hPa
Press
MSL
hPa
Rain
since 9 am
mm
Dir
 
Spd
km/h
Gust
km/h
Spd
kts
Gust
kts
18/11:30pm 23.3 26.3 21.9 92 0.9 N 9 15 5 8 1011.2 1011.1 1.0
18/11:00pm 23.1 26.1 21.9 93 0.8 SE 9 11 5 6 1011.5 1011.4 1.0
18/10:30pm 22.8 25.2 21.6 93 0.8 W 11 15 6 8 1011.3 1011.2 1.0
18/10:00pm 23.0 26.1 21.4 91 1.1 W 7 13 4 7 1010.8 1010.7 1.0
18/09:30pm 23.9 26.1 21.2 85 1.8 NE 11 15 6 8 1010.6 1010.5 1.0
18/09:00pm 23.6 26.8 21.3 87 1.5 SE 6 11 3 6 1011.0 1010.9 0.8
18/08:30pm 23.6 26.0 21.5 88 1.4 ESE 11 15 6 8 1010.2 1010.1 0.6
18/08:00pm 23.7 26.6 21.0 85 1.8 E 7 11 4 6 1010.2 1010.1 0.6
18/07:30pm 23.2 26.3 20.3 84 1.9 SSW 4 7 2 4 1010.2 1010.1 0.6
18/07:00pm 23.1 23.7 20.2 84 1.9 WNW 17 20 9 11 1010.1 1010.0 0.6
18/06:30pm 25.2 24.3 20.7 76 2.9 W 26 43 14 23 1009.8 1009.7 0.0
18/06:25pm 25.7 27.3 21.4 77 2.8 WNW 15 43 8 23 1009.7 1009.6 0.0
18/06:00pm 26.2 29.0 23.7 86 1.7 WNW 15 19 8 10 1008.4 1008.3 0.0
18/05:30pm 26.2 28.3 23.7 86 1.7 N 19 26 10 14 1006.8 1006.7 0.0
18/05:00pm 26.2 28.1 23.7 86 1.7 N 20 30 11 16 1006.8 1006.7 0.0
18/04:30pm 26.3 28.3 24.0 87 1.6 N 20 26 11 14 1006.2 1006.1 0.0
18/04:00pm 26.7 28.1 23.6 83 2.1 N 22 28 12 15 1006.1 1006.0 0.0
18/03:30pm 27.6 27.7 23.2 77 3.0 N 28 33 15 18 1005.9 1005.8 0.0
18/03:00pm 27.1 28.6 23.1 79 2.7 N 20 32 11 17 1006.4 1006.3 0.0
18/02:30pm 27.3 28.0 22.9 77 3.0 NNE 24 33 13 18 1006.4 1006.3 0.0
18/02:00pm 29.0 30.8 24.3 76 3.3 NNE 22 28 12 15 1006.8 1006.7 0.0
18/01:30pm 28.6 29.3 23.7 75 3.4 NNE 26 32 14 17 1007.8 1007.7 0.0
18/01:00pm 28.9 30.5 23.8 74 3.5 NNE 22 30 12 16 1008.4 1008.3 0.0
18/12:30pm 28.7 30.6 23.8 75 3.4 NNE 20 24 11 13 1008.6 1008.5 0.0
18/12:00pm 27.5 29.0 23.1 77 3.0 NNE 20 28 11 15 1009.0 1008.9 0.0
18/11:30am 28.5 29.4 22.0 68 4.4 N 20 24 11 13 1009.8 1009.7 0.0
18/11:00am 28.5 29.8 22.3 69 4.2 NNE 19 22 10 12 1010.2 1010.1 0.0
18/10:30am 27.6 28.6 22.1 72 3.7 NNE 20 24 11 13 1010.5 1010.4 0.0
18/10:00am 28.2 29.3 22.4 71 3.9 N 20 24 11 13 1010.5 1010.4 0.0
18/09:30am 27.6 29.4 22.5 74 3.4 N 17 20 9 11 1010.5 1010.4 0.0
18/09:07am 27.4 28.4 22.1 73 3.6 NNW 20 26 11 14 1010.5 1010.4 0.0
18/09:00am 27.6 28.9 22.3 73 3.6 NNW 19 26 10 14 1010.5 1010.4 0.2
18/08:30am 27.4 30.1 22.8 76 3.1 NNW 13 17 7 9 1011.0 1010.9 0.0
18/08:28am 27.0 29.4 22.2 75 3.2 NNW 13 17 7 9 1011.0 1010.9 0.0
18/08:13am 26.8 30.5 22.6 78 2.8 NW 7 13 4 7 1010.9 1010.8 0.0
18/08:00am 25.8 28.5 22.1 80 2.5 NNW 11 15 6 8 1011.0 1010.9 0.0
18/07:58am 25.5 28.1 22.0 81 2.3 NNW 11 15 6 8 1011.0 1010.9 0.0
18/07:30am 25.5 27.2 21.0 76 3.0 NNE 13 17 7 9 1010.9 1010.8 0.0
18/07:00am 25.3 28.5 21.6 80 2.5 NW 7 11 4 6 1010.9 1010.8 0.0
18/06:30am 23.9 27.0 21.4 86 1.6 NNW 7 9 4 5 1010.6 1010.5 0.0
18/06:00am 23.6 27.0 21.7 89 1.3 SSW 6 7 3 4 1009.8 1009.7 0.0
18/05:30am 23.1 26.2 21.0 88 1.4 S 6 9 3 5 1009.8 1009.7 0.0
18/05:00am 23.4 24.8 21.1 87 1.5 S 15 20 8 11 1009.4 1009.3 0.0
18/04:30am 23.6 24.5 21.5 88 1.4 SSE 19 26 10 14 1009.4 1009.3 0.0
18/04:00am 23.5 24.1 21.4 88 1.4 S 20 28 11 15 1010.2 1010.1 0.0
18/03:30am 24.1 24.8 21.2 84 1.9 SSW 19 28 10 15 1010.9 1010.8 0.0
18/03:00am 24.1 26.0 21.4 85 1.8 SSW 13 20 7 11 1010.3 1010.2 0.0
18/02:30am 24.3 25.9 21.4 84 1.9 SE 15 20 8 11 1009.2 1009.1 0.0
18/02:00am 24.5 26.5 21.6 84 1.9 S 13 20 7 11 1009.9 1009.8 0.0
18/01:58am 24.5 26.5 21.6 84 1.9 S 13 20 7 11 1009.8 1009.7 0.0
18/01:30am 24.8 26.2 21.9 84 1.9 SSW 17 24 9 13 1010.3 1010.2 0.0
18/01:00am 24.7 25.0 22.2 86 1.7 S 24 35 13 19 1009.6 1009.5 0.0
18/12:30am 24.8 25.5 22.3 86 1.7 S 22 33 12 18 1009.4 1009.3 0.0
18/12:00am 24.8 25.1 22.3 86 1.7 S 24 37 13 20 1008.9 1008.8 0.0
 
Date/Time
EST
Temp
°C
App
Temp
°C
Dew
Point
Rel
Hum
%
Delta-T
°C
Wind Press
QNH
hPa
Press
MSL
hPa
Rain
since 9 am
mm
Dir
 
Spd
km/h
Gust
km/h
Spd
kts
Gust
kts
17/11:43pm 24.9 25.7 22.4 86 1.7 S 22 35 12 19 1009.2 1009.1 0.0
17/11:30pm 25.1 25.5 22.4 85 1.8 S 24 35 13 19 1008.9 1008.8 0.0
17/11:00pm 25.2 27.3 23.1 88 1.4 S 17 24 9 13 1008.8 1008.7 0.0
17/10:30pm 25.1 28.2 23.5 91 1.1 S 13 19 7 10 1009.2 1009.1 0.0
17/10:00pm 25.1 28.2 24.1 94 0.7 SSE 15 20 8 11 1008.6 1008.5 0.0
17/09:30pm 25.0 30.2 23.6 92 1.0 SSE 2 7 1 4 1008.0 1007.9 0.0
17/09:00pm 25.2 29.5 23.6 91 1.1 NNW 7 11 4 6 1007.3 1007.2 0.0
17/08:30pm 25.4 28.4 24.0 92 1.0 NNW 15 22 8 12 1006.8 1006.7 0.0
17/08:00pm 25.5 28.9 24.1 92 1.0 NNW 13 19 7 10 1006.4 1006.3 0.0
17/07:30pm 25.6 28.6 24.0 91 1.1 N 15 19 8 10 1006.0 1005.9 0.0
17/07:00pm 25.7 28.8 24.1 91 1.1 NNW 15 20 8 11 1005.6 1005.5 0.0
17/06:30pm 25.9 28.5 23.9 89 1.4 N 17 20 9 11 1005.2 1005.1 0.0
17/06:00pm 26.3 28.9 24.0 87 1.6 N 17 22 9 12 1004.9 1004.8 0.0
17/05:30pm 26.4 29.8 24.1 87 1.6 N 13 17 7 9 1004.3 1004.2 0.0
17/05:00pm 26.6 29.4 23.7 84 2.0 NNW 15 20 8 11 1004.1 1004.0 0.0
17/04:30pm 27.5 28.8 22.4 73 3.4 N 19 26 10 14 1003.8 1003.7 0.0
17/04:00pm 28.0 29.1 22.0 70 4.0 N 19 26 10 14 1003.3 1003.2 0.0
17/03:30pm 28.6 29.8 22.1 68 4.4 N 19 28 10 15 1003.3 1003.2 0.0
17/03:00pm 28.8 29.1 22.3 68 4.4 N 24 32 13 17 1003.5 1003.4 0.0
17/02:30pm 29.1 28.8 22.6 68 4.4 N 28 37 15 20 1003.6 1003.5 0.0
17/02:00pm 29.5 29.2 23.2 69 4.3 N 30 39 16 21 1003.8 1003.7 0.0
17/01:30pm 30.0 29.4 23.4 67 4.5 N 32 39 17 21 1003.9 1003.8 0.0
17/01:00pm 30.5 29.2 22.4 62 5.5 NNE 33 43 18 23 1003.9 1003.8 0.0
17/12:30pm 35.2 36.6 20.3 41 10.0 NW 13 26 7 14 1004.0 1003.9 0.0
17/12:00pm 36.3 35.7 18.8 35 11.6 NNW 20 32 11 17 1004.5 1004.4 0.0
17/11:30am 33.2 33.0 19.7 45 8.9 NW 20 30 11 16 1004.7 1004.6 0.0
17/11:00am 29.9 29.9 23.1 67 4.7 N 28 33 15 18 1005.1 1005.0 0.0
17/10:30am 29.7 30.3 23.4 69 4.3 N 26 35 14 19 1005.5 1005.4 0.0
17/10:00am 28.8 29.9 23.7 74 3.5 N 24 32 13 17 1005.8 1005.7 0.0
17/09:30am 27.4 28.4 22.1 73 3.6 N 20 28 11 15 1006.1 1006.0 0.0
17/09:00am 28.2 29.1 22.7 72 3.7 N 22 28 12 15 1006.2 1006.1 3.2
17/08:30am 27.9 29.2 22.4 72 3.7 NNW 19 26 10 14 1006.5 1006.4 3.2
17/08:00am 26.9 28.3 22.5 77 3.0 NNW 19 28 10 15 1006.8 1006.7 3.2
17/07:49am 26.3 27.4 21.9 77 2.9 NNW 19 30 10 16 1006.9 1006.8 3.2
17/07:30am 25.8 27.6 21.9 79 2.6 NNW 15 22 8 12 1006.9 1006.8 3.2
17/07:00am 25.4 27.3 22.1 82 2.2 NW 15 20 8 11 1006.8 1006.7 3.2

Other Formats:

Comma delimited format used in spreadsheet applications
http://www.bom.gov.au/fwo/IDQ60801/IDQ60801.94592.axf

JavaScript Object Notation format (JSON) in row-major order
http://www.bom.gov.au/fwo/IDQ60801/IDQ60801.94592.json